sensor_id;sensor_type;location;lat;lon;timestamp;temperature;humidity
4820;DHT22;2424;49.696;6.630;2023-04-24T00:00:51;10.00;99.90
4820;DHT22;2424;49.696;6.630;2023-04-24T00:06:13;10.00;99.90
4820;DHT22;2424;49.696;6.630;2023-04-24T00:11:37;10.00;99.90
4820;DHT22;2424;49.696;6.630;2023-04-24T00:17:00;10.00;99.90
4820;DHT22;2424;49.696;6.630;2023-04-24T00:22:23;10.00;99.90
4820;DHT22;2424;49.696;6.630;2023-04-24T00:27:45;10.00;99.90
4820;DHT22;2424;49.696;6.630;2023-04-24T00:33:09;9.90;99.90
4820;DHT22;2424;49.696;6.630;2023-04-24T00:38:31;9.80;99.90
4820;DHT22;2424;49.696;6.630;2023-04-24T00:43:53;9.70;99.90
4820;DHT22;2424;49.696;6.630;2023-04-24T00:49:16;9.80;99.90
4820;DHT22;2424;49.696;6.630;2023-04-24T00:54:39;9.70;99.90
4820;DHT22;2424;49.696;6.630;2023-04-24T01:00:01;9.60;99.90
4820;DHT22;2424;49.696;6.630;2023-04-24T01:05:27;9.60;99.90
4820;DHT22;2424;49.696;6.630;2023-04-24T01:10:50;9.60;99.90
4820;DHT22;2424;49.696;6.630;2023-04-24T01:16:13;9.50;99.90
4820;DHT22;2424;49.696;6.630;2023-04-24T01:21:37;9.50;99.90
4820;DHT22;2424;49.696;6.630;2023-04-24T01:27:01;9.40;99.90
4820;DHT22;2424;49.696;6.630;2023-04-24T01:32:24;9.40;99.90
4820;DHT22;2424;49.696;6.630;2023-04-24T01:37:46;9.40;99.90
4820;DHT22;2424;49.696;6.630;2023-04-24T01:43:09;9.20;99.90
4820;DHT22;2424;49.696;6.630;2023-04-24T01:48:31;9.10;99.90
4820;DHT22;2424;49.696;6.630;2023-04-24T01:53:53;9.00;99.90
4820;DHT22;2424;49.696;6.630;2023-04-24T01:59:17;8.90;99.90
4820;DHT22;2424;49.696;6.630;2023-04-24T02:04:39;8.70;99.90
4820;DHT22;2424;49.696;6.630;2023-04-24T02:10:02;8.60;99.90
4820;DHT22;2424;49.696;6.630;2023-04-24T02:15:27;8.60;99.90
4820;DHT22;2424;49.696;6.630;2023-04-24T02:20:49;8.50;99.90
4820;DHT22;2424;49.696;6.630;2023-04-24T02:26:11;8.50;99.90
4820;DHT22;2424;49.696;6.630;2023-04-24T02:31:34;8.40;99.90
4820;DHT22;2424;49.696;6.630;2023-04-24T02:36:56;8.40;99.90
4820;DHT22;2424;49.696;6.630;2023-04-24T02:42:19;8.40;99.90
4820;DHT22;2424;49.696;6.630;2023-04-24T02:47:42;8.40;99.90
4820;DHT22;2424;49.696;6.630;2023-04-24T02:53:04;8.30;99.90
4820;DHT22;2424;49.696;6.630;2023-04-24T02:58:26;8.30;99.90
4820;DHT22;2424;49.696;6.630;2023-04-24T03:03:49;8.30;99.90
4820;DHT22;2424;49.696;6.630;2023-04-24T03:09:11;8.20;99.90
4820;DHT22;2424;49.696;6.630;2023-04-24T03:14:33;8.20;99.90
4820;DHT22;2424;49.696;6.630;2023-04-24T03:19:57;8.20;99.90
4820;DHT22;2424;49.696;6.630;2023-04-24T03:25:19;8.20;99.90
4820;DHT22;2424;49.696;6.630;2023-04-24T03:30:41;8.20;99.90
4820;DHT22;2424;49.696;6.630;2023-04-24T03:36:04;8.20;99.90
4820;DHT22;2424;49.696;6.630;2023-04-24T03:41:26;8.20;99.90
4820;DHT22;2424;49.696;6.630;2023-04-24T03:46:49;8.10;99.90
4820;DHT22;2424;49.696;6.630;2023-04-24T03:52:12;8.20;99.90
4820;DHT22;2424;49.696;6.630;2023-04-24T03:57:34;8.20;99.90
4820;DHT22;2424;49.696;6.630;2023-04-24T04:02:56;8.00;99.90
4820;DHT22;2424;49.696;6.630;2023-04-24T04:08:19;8.00;99.90
4820;DHT22;2424;49.696;6.630;2023-04-24T04:13:41;7.90;99.90
4820;DHT22;2424;49.696;6.630;2023-04-24T04:19:03;7.90;99.90
4820;DHT22;2424;49.696;6.630;2023-04-24T04:24:27;7.90;99.90
4820;DHT22;2424;49.696;6.630;2023-04-24T04:29:49;7.90;99.90
4820;DHT22;2424;49.696;6.630;2023-04-24T04:35:11;7.80;99.90
4820;DHT22;2424;49.696;6.630;2023-04-24T04:40:35;7.80;99.90
4820;DHT22;2424;49.696;6.630;2023-04-24T04:45:58;7.60;99.90
4820;DHT22;2424;49.696;6.630;2023-04-24T04:51:21;7.70;99.90
4820;DHT22;2424;49.696;6.630;2023-04-24T04:56:44;7.70;99.90
4820;DHT22;2424;49.696;6.630;2023-04-24T05:02:06;7.80;99.90
4820;DHT22;2424;49.696;6.630;2023-04-24T05:07:28;7.80;99.90
4820;DHT22;2424;49.696;6.630;2023-04-24T05:12:51;7.70;99.90
4820;DHT22;2424;49.696;6.630;2023-04-24T05:18:13;7.80;99.90
4820;DHT22;2424;49.696;6.630;2023-04-24T05:23:36;7.90;99.90
4820;DHT22;2424;49.696;6.630;2023-04-24T05:28:59;7.90;99.90
4820;DHT22;2424;49.696;6.630;2023-04-24T05:34:22;7.90;99.90
4820;DHT22;2424;49.696;6.630;2023-04-24T05:39:44;8.00;99.90
4820;DHT22;2424;49.696;6.630;2023-04-24T05:45:08;8.00;99.90
4820;DHT22;2424;49.696;6.630;2023-04-24T05:50:35;7.90;99.90
4820;DHT22;2424;49.696;6.630;2023-04-24T05:55:57;8.00;99.90
4820;DHT22;2424;49.696;6.630;2023-04-24T06:01:20;8.00;99.90
4820;DHT22;2424;49.696;6.630;2023-04-24T06:06:42;7.90;99.90
4820;DHT22;2424;49.696;6.630;2023-04-24T06:12:04;8.00;99.90
4820;DHT22;2424;49.696;6.630;2023-04-24T06:17:30;7.90;99.90
4820;DHT22;2424;49.696;6.630;2023-04-24T06:22:53;7.90;99.90
4820;DHT22;2424;49.696;6.630;2023-04-24T06:28:15;8.00;99.90
4820;DHT22;2424;49.696;6.630;2023-04-24T06:33:38;7.90;99.90
4820;DHT22;2424;49.696;6.630;2023-04-24T06:39:00;7.90;99.90
4820;DHT22;2424;49.696;6.630;2023-04-24T06:44:22;7.90;99.90
4820;DHT22;2424;49.696;6.630;2023-04-24T06:49:45;7.80;99.90
4820;DHT22;2424;49.696;6.630;2023-04-24T06:55:08;7.80;99.90
4820;DHT22;2424;49.696;6.630;2023-04-24T07:00:31;7.80;99.90
4820;DHT22;2424;49.696;6.630;2023-04-24T07:05:55;7.70;99.90
4820;DHT22;2424;49.696;6.630;2023-04-24T07:11:18;7.80;99.90
4820;DHT22;2424;49.696;6.630;2023-04-24T07:16:40;7.70;99.90
4820;DHT22;2424;49.696;6.630;2023-04-24T07:22:04;7.70;99.90
4820;DHT22;2424;49.696;6.630;2023-04-24T07:27:26;7.70;99.90
4820;DHT22;2424;49.696;6.630;2023-04-24T07:32:48;7.70;99.90
4820;DHT22;2424;49.696;6.630;2023-04-24T07:38:12;7.70;99.90
4820;DHT22;2424;49.696;6.630;2023-04-24T07:43:53;7.70;99.90
4820;DHT22;2424;49.696;6.630;2023-04-24T07:49:15;7.60;99.90
4820;DHT22;2424;49.696;6.630;2023-04-24T07:54:38;7.60;99.90
4820;DHT22;2424;49.696;6.630;2023-04-24T08:00:00;7.70;99.90
4820;DHT22;2424;49.696;6.630;2023-04-24T08:05:22;7.70;99.90
4820;DHT22;2424;49.696;6.630;2023-04-24T08:10:47;7.80;99.90
4820;DHT22;2424;49.696;6.630;2023-04-24T08:16:09;7.80;99.90
4820;DHT22;2424;49.696;6.630;2023-04-24T08:21:31;7.90;99.90
4820;DHT22;2424;49.696;6.630;2023-04-24T08:26:54;8.00;99.90
4820;DHT22;2424;49.696;6.630;2023-04-24T08:32:18;8.00;99.90
4820;DHT22;2424;49.696;6.630;2023-04-24T08:37:40;8.10;99.90
4820;DHT22;2424;49.696;6.630;2023-04-24T08:43:03;8.20;99.90
4820;DHT22;2424;49.696;6.630;2023-04-24T08:48:26;8.20;99.90
4820;DHT22;2424;49.696;6.630;2023-04-24T08:53:49;8.30;99.90
4820;DHT22;2424;49.696;6.630;2023-04-24T08:59:14;8.30;99.90
4820;DHT22;2424;49.696;6.630;2023-04-24T09:04:37;8.30;99.90
4820;DHT22;2424;49.696;6.630;2023-04-24T09:09:59;8.30;99.90
4820;DHT22;2424;49.696;6.630;2023-04-24T09:15:24;8.40;99.90
4820;DHT22;2424;49.696;6.630;2023-04-24T09:21:01;8.50;99.90
4820;DHT22;2424;49.696;6.630;2023-04-24T09:26:23;8.60;99.90
4820;DHT22;2424;49.696;6.630;2023-04-24T09:31:46;8.60;99.90
4820;DHT22;2424;49.696;6.630;2023-04-24T09:37:08;8.60;99.90
4820;DHT22;2424;49.696;6.630;2023-04-24T09:42:30;8.70;99.90
4820;DHT22;2424;49.696;6.630;2023-04-24T09:47:55;8.80;99.90
4820;DHT22;2424;49.696;6.630;2023-04-24T09:53:24;8.90;99.90
4820;DHT22;2424;49.696;6.630;2023-04-24T09:58:46;9.00;99.90
4820;DHT22;2424;49.696;6.630;2023-04-24T10:04:17;9.00;99.90
4820;DHT22;2424;49.696;6.630;2023-04-24T10:09:40;9.30;99.90
4820;DHT22;2424;49.696;6.630;2023-04-24T10:15:02;9.40;99.90
4820;DHT22;2424;49.696;6.630;2023-04-24T10:20:29;9.50;99.90
4820;DHT22;2424;49.696;6.630;2023-04-24T10:25:52;9.60;99.90
4820;DHT22;2424;49.696;6.630;2023-04-24T10:31:15;9.60;99.90
4820;DHT22;2424;49.696;6.630;2023-04-24T10:36:41;9.80;99.90
4820;DHT22;2424;49.696;6.630;2023-04-24T10:42:14;9.80;99.90
4820;DHT22;2424;49.696;6.630;2023-04-24T10:47:40;9.90;99.90
4820;DHT22;2424;49.696;6.630;2023-04-24T10:53:11;9.90;99.90
4820;DHT22;2424;49.696;6.630;2023-04-24T10:58:39;9.90;99.90
4820;DHT22;2424;49.696;6.630;2023-04-24T11:04:02;9.90;99.90
4820;DHT22;2424;49.696;6.630;2023-04-24T11:09:28;9.90;99.90
4820;DHT22;2424;49.696;6.630;2023-04-24T11:15:10;9.90;99.90
4820;DHT22;2424;49.696;6.630;2023-04-24T11:20:32;9.90;99.90
4820;DHT22;2424;49.696;6.630;2023-04-24T11:26:13;10.00;99.90
4820;DHT22;2424;49.696;6.630;2023-04-24T11:31:39;10.00;99.90
4820;DHT22;2424;49.696;6.630;2023-04-24T11:37:02;10.10;99.90
4820;DHT22;2424;49.696;6.630;2023-04-24T11:42:26;10.30;99.90
4820;DHT22;2424;49.696;6.630;2023-04-24T11:47:48;10.30;99.90
4820;DHT22;2424;49.696;6.630;2023-04-24T11:53:10;10.30;99.90
4820;DHT22;2424;49.696;6.630;2023-04-24T11:58:37;10.30;99.90
4820;DHT22;2424;49.696;6.630;2023-04-24T12:04:00;10.40;99.90
4820;DHT22;2424;49.696;6.630;2023-04-24T12:09:22;10.40;99.90
4820;DHT22;2424;49.696;6.630;2023-04-24T12:14:56;10.40;99.90
4820;DHT22;2424;49.696;6.630;2023-04-24T12:20:24;10.40;99.90
4820;DHT22;2424;49.696;6.630;2023-04-24T12:25:46;10.40;99.90
4820;DHT22;2424;49.696;6.630;2023-04-24T12:31:10;10.50;99.90
4820;DHT22;2424;49.696;6.630;2023-04-24T12:36:32;10.90;99.90
4820;DHT22;2424;49.696;6.630;2023-04-24T12:41:57;11.20;99.90
4820;DHT22;2424;49.696;6.630;2023-04-24T12:47:21;11.60;99.90
4820;DHT22;2424;49.696;6.630;2023-04-24T12:52:44;11.40;99.90
4820;DHT22;2424;49.696;6.630;2023-04-24T12:58:05;11.40;99.90
4820;DHT22;2424;49.696;6.630;2023-04-24T13:03:29;11.40;99.90
4820;DHT22;2424;49.696;6.630;2023-04-24T13:08:51;11.40;99.90
4820;DHT22;2424;49.696;6.630;2023-04-24T13:14:13;11.40;99.90
4820;DHT22;2424;49.696;6.630;2023-04-24T13:19:41;11.40;99.90
4820;DHT22;2424;49.696;6.630;2023-04-24T13:25:05;11.40;99.90
4820;DHT22;2424;49.696;6.630;2023-04-24T13:30:27;11.60;99.90
4820;DHT22;2424;49.696;6.630;2023-04-24T13:35:50;12.10;99.90
4820;DHT22;2424;49.696;6.630;2023-04-24T13:41:12;12.50;99.90
4820;DHT22;2424;49.696;6.630;2023-04-24T13:46:34;12.50;99.90
4820;DHT22;2424;49.696;6.630;2023-04-24T13:51:58;12.60;99.90
4820;DHT22;2424;49.696;6.630;2023-04-24T13:57:20;12.70;99.90
4820;DHT22;2424;49.696;6.630;2023-04-24T14:02:42;12.80;99.90
4820;DHT22;2424;49.696;6.630;2023-04-24T14:08:05;12.70;99.90
4820;DHT22;2424;49.696;6.630;2023-04-24T14:13:28;12.60;99.90
4820;DHT22;2424;49.696;6.630;2023-04-24T14:18:49;12.90;99.90
4820;DHT22;2424;49.696;6.630;2023-04-24T14:24:13;12.70;99.90
4820;DHT22;2424;49.696;6.630;2023-04-24T14:29:35;12.90;99.90
4820;DHT22;2424;49.696;6.630;2023-04-24T14:34:57;12.80;99.90
4820;DHT22;2424;49.696;6.630;2023-04-24T14:40:20;13.00;99.90
4820;DHT22;2424;49.696;6.630;2023-04-24T14:45:44;12.60;99.90
4820;DHT22;2424;49.696;6.630;2023-04-24T14:51:06;12.30;99.90
4820;DHT22;2424;49.696;6.630;2023-04-24T14:56:29;12.20;99.90
4820;DHT22;2424;49.696;6.630;2023-04-24T15:01:51;12.00;99.90
4820;DHT22;2424;49.696;6.630;2023-04-24T15:07:18;11.90;99.90
4820;DHT22;2424;49.696;6.630;2023-04-24T15:12:41;12.00;99.90
4820;DHT22;2424;49.696;6.630;2023-04-24T15:18:04;11.80;99.90
4820;DHT22;2424;49.696;6.630;2023-04-24T15:23:26;11.70;99.90
4820;DHT22;2424;49.696;6.630;2023-04-24T15:28:49;11.60;99.90
4820;DHT22;2424;49.696;6.630;2023-04-24T15:34:12;11.20;99.90
4820;DHT22;2424;49.696;6.630;2023-04-24T15:39:34;10.80;99.90
4820;DHT22;2424;49.696;6.630;2023-04-24T15:44:57;10.70;99.90
4820;DHT22;2424;49.696;6.630;2023-04-24T15:50:19;10.50;99.90
4820;DHT22;2424;49.696;6.630;2023-04-24T15:55:42;10.30;99.90
4820;DHT22;2424;49.696;6.630;2023-04-24T16:01:05;10.20;99.90
4820;DHT22;2424;49.696;6.630;2023-04-24T16:06:27;10.00;99.90
4820;DHT22;2424;49.696;6.630;2023-04-24T16:11:49;9.90;99.90
4820;DHT22;2424;49.696;6.630;2023-04-24T16:17:12;10.00;99.90
4820;DHT22;2424;49.696;6.630;2023-04-24T16:22:34;10.10;99.90
4820;DHT22;2424;49.696;6.630;2023-04-24T16:27:56;10.10;99.90
4820;DHT22;2424;49.696;6.630;2023-04-24T16:33:20;10.10;99.90
4820;DHT22;2424;49.696;6.630;2023-04-24T16:38:42;10.20;99.90
4820;DHT22;2424;49.696;6.630;2023-04-24T16:44:04;10.00;99.90
4820;DHT22;2424;49.696;6.630;2023-04-24T16:49:27;10.10;99.90
4820;DHT22;2424;49.696;6.630;2023-04-24T16:54:50;10.20;99.90
4820;DHT22;2424;49.696;6.630;2023-04-24T17:00:13;10.40;99.90
4820;DHT22;2424;49.696;6.630;2023-04-24T17:05:37;10.80;99.90
4820;DHT22;2424;49.696;6.630;2023-04-24T17:10:59;10.80;99.90
4820;DHT22;2424;49.696;6.630;2023-04-24T17:16:21;10.80;99.90
4820;DHT22;2424;49.696;6.630;2023-04-24T17:21:44;10.60;99.90
4820;DHT22;2424;49.696;6.630;2023-04-24T17:27:07;10.40;99.90
4820;DHT22;2424;49.696;6.630;2023-04-24T17:32:28;10.40;99.90
4820;DHT22;2424;49.696;6.630;2023-04-24T17:37:52;10.20;99.90
4820;DHT22;2424;49.696;6.630;2023-04-24T17:43:14;10.20;99.90
4820;DHT22;2424;49.696;6.630;2023-04-24T17:48:37;10.20;99.90
4820;DHT22;2424;49.696;6.630;2023-04-24T17:54:01;10.20;99.90
4820;DHT22;2424;49.696;6.630;2023-04-24T17:59:22;10.10;99.90
4820;DHT22;2424;49.696;6.630;2023-04-24T18:04:44;10.00;99.90
4820;DHT22;2424;49.696;6.630;2023-04-24T18:10:08;9.90;99.90
4820;DHT22;2424;49.696;6.630;2023-04-24T18:15:31;9.80;99.90
4820;DHT22;2424;49.696;6.630;2023-04-24T18:20:54;9.80;99.90
4820;DHT22;2424;49.696;6.630;2023-04-24T18:26:17;9.80;99.90
4820;DHT22;2424;49.696;6.630;2023-04-24T18:31:39;9.80;99.90
4820;DHT22;2424;49.696;6.630;2023-04-24T18:37:01;9.60;99.90
4820;DHT22;2424;49.696;6.630;2023-04-24T18:42:25;9.40;99.90
4820;DHT22;2424;49.696;6.630;2023-04-24T18:47:47;9.30;99.90
4820;DHT22;2424;49.696;6.630;2023-04-24T18:53:09;9.20;99.90
4820;DHT22;2424;49.696;6.630;2023-04-24T18:58:35;9.10;99.90
4820;DHT22;2424;49.696;6.630;2023-04-24T19:03:57;9.00;99.90
4820;DHT22;2424;49.696;6.630;2023-04-24T19:09:19;8.90;99.90
4820;DHT22;2424;49.696;6.630;2023-04-24T19:14:42;9.00;99.90
4820;DHT22;2424;49.696;6.630;2023-04-24T19:20:06;9.00;99.90
4820;DHT22;2424;49.696;6.630;2023-04-24T19:25:28;8.90;99.90
4820;DHT22;2424;49.696;6.630;2023-04-24T19:30:51;8.80;99.90
4820;DHT22;2424;49.696;6.630;2023-04-24T19:36:17;8.70;99.90
4820;DHT22;2424;49.696;6.630;2023-04-24T19:41:39;8.70;99.90
4820;DHT22;2424;49.696;6.630;2023-04-24T19:47:02;8.80;99.90
4820;DHT22;2424;49.696;6.630;2023-04-24T19:52:22;8.70;99.90
4820;DHT22;2424;49.696;6.630;2023-04-24T19:57:44;8.80;99.90
4820;DHT22;2424;49.696;6.630;2023-04-24T20:03:08;8.80;99.90
4820;DHT22;2424;49.696;6.630;2023-04-24T20:08:30;8.70;99.90
4820;DHT22;2424;49.696;6.630;2023-04-24T20:13:52;8.70;99.90
4820;DHT22;2424;49.696;6.630;2023-04-24T20:19:15;8.70;99.90
4820;DHT22;2424;49.696;6.630;2023-04-24T20:24:37;8.70;99.90
4820;DHT22;2424;49.696;6.630;2023-04-24T20:29:59;8.60;99.90
4820;DHT22;2424;49.696;6.630;2023-04-24T20:35:23;8.60;99.90
4820;DHT22;2424;49.696;6.630;2023-04-24T20:40:45;8.70;99.90
4820;DHT22;2424;49.696;6.630;2023-04-24T20:46:08;8.60;99.90
4820;DHT22;2424;49.696;6.630;2023-04-24T20:51:32;8.60;99.90
4820;DHT22;2424;49.696;6.630;2023-04-24T20:56:54;8.60;99.90
4820;DHT22;2424;49.696;6.630;2023-04-24T21:02:17;8.50;99.90
4820;DHT22;2424;49.696;6.630;2023-04-24T21:07:40;8.50;99.90
4820;DHT22;2424;49.696;6.630;2023-04-24T21:13:02;8.40;99.90
4820;DHT22;2424;49.696;6.630;2023-04-24T21:18:24;8.30;99.90
4820;DHT22;2424;49.696;6.630;2023-04-24T21:23:48;8.30;99.90
4820;DHT22;2424;49.696;6.630;2023-04-24T21:29:10;8.20;99.90
4820;DHT22;2424;49.696;6.630;2023-04-24T21:34:32;8.10;99.90
4820;DHT22;2424;49.696;6.630;2023-04-24T21:39:55;8.40;99.90
4820;DHT22;2424;49.696;6.630;2023-04-24T21:45:17;8.40;99.90
4820;DHT22;2424;49.696;6.630;2023-04-24T21:50:39;8.50;99.90
4820;DHT22;2424;49.696;6.630;2023-04-24T21:56:03;8.50;99.90
4820;DHT22;2424;49.696;6.630;2023-04-24T22:01:25;8.40;99.90
4820;DHT22;2424;49.696;6.630;2023-04-24T22:06:47;8.50;99.90
4820;DHT22;2424;49.696;6.630;2023-04-24T22:12:10;8.50;99.90
4820;DHT22;2424;49.696;6.630;2023-04-24T22:17:32;8.50;99.90
4820;DHT22;2424;49.696;6.630;2023-04-24T22:22:54;8.50;99.90
4820;DHT22;2424;49.696;6.630;2023-04-24T22:28:18;8.50;99.90
4820;DHT22;2424;49.696;6.630;2023-04-24T22:33:39;8.50;99.90
4820;DHT22;2424;49.696;6.630;2023-04-24T22:39:02;8.40;99.90
4820;DHT22;2424;49.696;6.630;2023-04-24T22:44:26;8.40;99.90
4820;DHT22;2424;49.696;6.630;2023-04-24T22:49:47;8.40;99.90
4820;DHT22;2424;49.696;6.630;2023-04-24T22:55:13;8.20;99.90
4820;DHT22;2424;49.696;6.630;2023-04-24T23:00:36;8.30;99.90
4820;DHT22;2424;49.696;6.630;2023-04-24T23:05:58;8.30;99.90
4820;DHT22;2424;49.696;6.630;2023-04-24T23:11:20;8.40;99.90
4820;DHT22;2424;49.696;6.630;2023-04-24T23:16:43;8.40;99.90
4820;DHT22;2424;49.696;6.630;2023-04-24T23:22:05;8.40;99.90
4820;DHT22;2424;49.696;6.630;2023-04-24T23:27:27;8.40;99.90
4820;DHT22;2424;49.696;6.630;2023-04-24T23:32:51;8.30;99.90
4820;DHT22;2424;49.696;6.630;2023-04-24T23:38:13;8.30;99.90
4820;DHT22;2424;49.696;6.630;2023-04-24T23:43:35;8.30;99.90
4820;DHT22;2424;49.696;6.630;2023-04-24T23:48:59;8.30;99.90
4820;DHT22;2424;49.696;6.630;2023-04-24T23:54:21;8.30;99.90
4820;DHT22;2424;49.696;6.630;2023-04-24T23:59:42;8.30;99.90
